Aroma Park, Illinois
Current Conditions -  °F | °C
As of 7:55 PM on Wednesday 26 Nov 2014 (Local Time) from KRZL Reporting Station
Overcast Overcast  
Wind Chill: 22°   Ceiling: 2100
Heat Index: 28°   Visibility: 10mi
Dew Point: 25°   Wind: 6mph
Humidity: 86%   Direction: 50°NE
Pressure: 30.13"   Gusts: NA
Location:  41.08°N, 87.81°W
Report Text: KRZL 270155Z AUTO 05005KT 10SM OVC021 M02/M04 A3013 RMK AO2
Loading
Personal Weather Stations






























Interactive Weather Map New forecast layout! Learn more

10-Day Weather Forecast

Advertisements
Track Severe Weather on mobile